createdAt,value
2022-12-16T00:03:40.788Z,0.9
2022-12-16T00:09:26.695Z,0.7
2022-12-16T00:14:54.865Z,0.9
2022-12-16T00:20:33.264Z,0.9
2022-12-16T00:26:13.037Z,0.9
2022-12-16T00:31:55.566Z,1
2022-12-16T00:37:36.860Z,0.9
2022-12-16T00:43:14.943Z,0.7
2022-12-16T00:48:39.727Z,0.6
2022-12-16T00:53:48.428Z,0.6
2022-12-16T00:59:27.876Z,0.6
2022-12-16T01:04:52.194Z,0.4
2022-12-16T01:09:46.437Z,0.4
2022-12-16T01:15:11.437Z,0.6
2022-12-16T01:20:03.323Z,0.6
2022-12-16T01:25:11.784Z,0.6
2022-12-16T01:30:50.831Z,0.6
2022-12-16T01:36:59.054Z,0.7
2022-12-16T01:42:41.135Z,0.6
2022-12-16T01:48:20.956Z,0.7
2022-12-16T01:53:42.572Z,0.6
2022-12-16T01:59:04.544Z,0.7
2022-12-16T02:04:28.949Z,0.9
2022-12-16T02:09:50.246Z,0.9
2022-12-16T02:15:13.831Z,0.9
2022-12-16T02:20:21.085Z,0.9
2022-12-16T02:25:29.936Z,0.8
2022-12-16T02:30:41.074Z,0.7
2022-12-16T02:35:55.797Z,0.6
2022-12-16T02:41:03.829Z,0.6
2022-12-16T02:46:44.944Z,0.6
2022-12-16T02:52:23.497Z,0.4
2022-12-16T02:57:45.135Z,0.4
2022-12-16T03:03:08.171Z,0.5
2022-12-16T03:08:46.028Z,0.5
2022-12-16T03:14:08.605Z,0.5
2022-12-16T03:19:46.828Z,0.5
2022-12-16T03:25:27.399Z,0.5
2022-12-16T03:30:49.694Z,0.5
2022-12-16T03:36:27.920Z,0.5
2022-12-16T03:41:50.249Z,0.4
2022-12-16T03:47:14.947Z,0.4
2022-12-16T03:52:56.965Z,0.4
2022-12-16T03:58:41.419Z,0.5
2022-12-16T04:04:22.576Z,0.6
2022-12-16T04:10:03.589Z,0.6
2022-12-16T04:15:43.753Z,0.6
2022-12-16T04:21:25.038Z,0.7
2022-12-16T04:27:03.015Z,0.8
2022-12-16T04:32:41.341Z,0.6
2022-12-16T04:38:19.823Z,0.6
2022-12-16T04:43:59.095Z,0.8
2022-12-16T04:49:25.797Z,0.9
2022-12-16T04:55:03.257Z,0.6
2022-12-16T05:00:08.922Z,0.5
2022-12-16T05:05:33.282Z,0.6
2022-12-16T05:11:13.314Z,0.4
2022-12-16T05:16:51.482Z,0.4
2022-12-16T05:22:34.512Z,0.5
2022-12-16T05:28:01.617Z,0.4
2022-12-16T05:33:43.030Z,0.5
2022-12-16T05:39:05.588Z,0.5
2022-12-16T05:44:45.497Z,0.5
2022-12-16T05:50:28.024Z,0.4
2022-12-16T05:55:50.970Z,0.4
2022-12-16T06:01:28.961Z,0.3
2022-12-16T06:06:54.898Z,0.3
2022-12-16T06:12:16.880Z,0.2
2022-12-16T06:17:55.099Z,0.4
2022-12-16T06:23:36.689Z,0.7
2022-12-16T06:29:18.631Z,0.8
2022-12-16T06:34:45.482Z,0.9
2022-12-16T06:40:26.259Z,1
2022-12-16T06:46:07.937Z,1.1
2022-12-16T06:51:51.674Z,1.3
2022-12-16T06:57:29.712Z,1.6
2022-12-16T07:02:44.250Z,1.6
2022-12-16T07:08:25.875Z,1.7
2022-12-16T07:14:09.547Z,1.8
2022-12-16T07:19:51.931Z,1.9
2022-12-16T07:25:40.718Z,2.3
2022-12-16T07:31:24.354Z,2.4
2022-12-16T07:37:07.673Z,2.5
2022-12-16T07:42:47.707Z,2.6
2022-12-16T07:48:28.469Z,2.6
2022-12-16T07:54:08.467Z,2.7
2022-12-16T07:59:46.012Z,3.1
2022-12-16T08:53:30.231Z,6.8
2022-12-16T08:59:11.912Z,7.6
2022-12-16T09:04:37.981Z,8.1
2022-12-16T09:10:25.344Z,8.6
2022-12-16T09:16:04.732Z,8.9
2022-12-16T09:21:48.356Z,9.1
2022-12-16T09:27:28.293Z,9
2022-12-16T09:33:10.911Z,9.5
2022-12-16T09:38:58.038Z,9.7
2022-12-16T09:44:41.147Z,10.3
2022-12-16T09:50:21.110Z,9.8
2022-12-16T09:56:01.535Z,9.4
2022-12-16T10:01:26.392Z,9.7
2022-12-16T10:07:08.027Z,10
2022-12-16T10:12:52.513Z,10.3
2022-12-16T10:18:37.889Z,10.4
2022-12-16T10:24:09.560Z,10.7
2022-12-16T10:29:53.912Z,11.3
2022-12-16T10:35:21.084Z,11.3
2022-12-16T10:41:10.797Z,12
2022-12-16T10:46:48.921Z,12.5
2022-12-16T10:52:47.626Z,12.5
2022-12-16T10:58:12.275Z,13.4
2022-12-16T11:03:59.879Z,12.1
2022-12-16T11:09:39.063Z,12.2
2022-12-16T11:15:46.553Z,12.6
2022-12-16T11:21:29.961Z,13
2022-12-16T11:27:12.268Z,12.5
2022-12-16T11:32:52.075Z,13.1
2022-12-16T11:38:30.963Z,13.2
2022-12-16T11:44:18.741Z,12.6
2022-12-16T11:49:59.375Z,13.1
2022-12-16T11:56:19.899Z,13.8
2022-12-16T12:02:02.343Z,13.8
2022-12-16T12:07:30.122Z,13.9
2022-12-16T12:13:09.692Z,14.1
2022-12-16T12:18:53.067Z,14.3
2022-12-16T12:24:33.584Z,13.9
2022-12-16T12:30:17.625Z,13.9
2022-12-16T12:35:58.526Z,14.4
2022-12-16T12:41:25.428Z,14.4
2022-12-16T12:47:22.969Z,14.3
2022-12-16T12:52:46.467Z,14.8
2022-12-16T12:58:17.014Z,14.6
2022-12-16T13:04:02.831Z,14.3
2022-12-16T13:09:42.209Z,14.1
2022-12-16T13:15:24.534Z,14.6
2022-12-16T13:21:12.925Z,13.8
2022-12-16T13:26:36.049Z,13.8
2022-12-16T13:32:17.223Z,13.4
2022-12-16T13:38:04.022Z,13.1
2022-12-16T13:43:42.386Z,12
2022-12-16T13:49:23.442Z,11.8
2022-12-16T13:55:02.484Z,11.8
2022-12-16T14:00:52.758Z,10.9
2022-12-16T14:06:16.760Z,10.4
2022-12-16T14:11:57.336Z,10.6
2022-12-16T14:17:22.074Z,10.3
2022-12-16T14:23:00.241Z,10.5
2022-12-16T14:29:10.534Z,10.6
2022-12-16T14:34:49.245Z,10.3
2022-12-16T14:40:32.554Z,10.1
2022-12-16T14:45:55.235Z,9.6
2022-12-16T14:51:41.833Z,9.8
2022-12-16T14:57:20.933Z,9.9
2022-12-16T15:03:03.440Z,9.5
2022-12-16T15:08:38.264Z,9.4
2022-12-16T15:14:20.465Z,9.6
2022-12-16T15:20:03.049Z,9.4
2022-12-16T15:25:41.964Z,9.1
2022-12-16T15:31:25.495Z,9.6
2022-12-16T15:36:53.154Z,9.3
2022-12-16T15:42:20.922Z,9.6
2022-12-16T15:47:58.633Z,9.6
2022-12-16T15:53:41.582Z,10.1
2022-12-16T15:59:24.705Z,9.5
2022-12-16T16:04:54.056Z,9.3
2022-12-16T16:10:38.233Z,9.9
2022-12-16T16:16:24.893Z,9.8
2022-12-16T16:22:05.662Z,9.6
2022-12-16T16:27:32.434Z,9
2022-12-16T16:32:55.579Z,8.7
2022-12-16T16:38:02.509Z,8.5
2022-12-16T16:43:40.617Z,8.2
2022-12-16T16:49:09.745Z,8
2022-12-16T16:54:35.929Z,8.4
2022-12-16T17:00:18.781Z,8.4
2022-12-16T17:06:06.016Z,9.5
2022-12-16T17:11:50.928Z,8.3
2022-12-16T17:17:37.257Z,7.8
2022-12-16T17:23:20.320Z,7.4
2022-12-16T17:29:04.816Z,7.6
2022-12-16T17:34:47.093Z,7.2
2022-12-16T17:40:15.337Z,7.6
2022-12-16T17:45:39.331Z,7.2
2022-12-16T17:51:20.671Z,7.1
2022-12-16T17:57:14.655Z,6.9
2022-12-16T18:02:38.044Z,6.8
2022-12-16T18:08:03.841Z,6.9
2022-12-16T18:13:11.328Z,6.9
2022-12-16T18:29:21.999Z,7
2022-12-16T18:35:04.522Z,6.7
2022-12-16T18:40:44.755Z,6.5
2022-12-16T18:46:29.772Z,6.4
2022-12-16T18:51:42.220Z,6.1
2022-12-16T18:57:04.745Z,6.6
2022-12-16T19:03:16.186Z,6.7
2022-12-16T19:08:53.477Z,7.3
2022-12-16T19:25:14.868Z,6.3
2022-12-16T23:36:16.659Z,4.8
2022-12-16T23:41:42.781Z,4.8
2022-12-16T23:47:29.244Z,4.3
2022-12-16T23:52:53.696Z,4.4
2022-12-16T23:58:34.087Z,4.3
